createdAt,value
2019-06-01T00:01:48.896Z,8.30
2019-06-01T00:04:21.532Z,7.63
2019-06-01T00:06:58.242Z,7.63
2019-06-01T00:09:30.809Z,7.93
2019-06-01T00:12:06.856Z,7.13
2019-06-01T00:14:39.689Z,8.10
2019-06-01T00:17:14.206Z,9.70
2019-06-01T00:19:48.233Z,8.80
2019-06-01T00:22:22.278Z,9.20
2019-06-01T00:24:57.708Z,8.93
2019-06-01T00:27:31.812Z,7.87
2019-06-01T00:30:06.286Z,10.00
2019-06-01T00:32:42.987Z,8.93
2019-06-01T00:35:16.788Z,9.13
2019-06-01T00:37:50.189Z,9.67
2019-06-01T00:40:23.621Z,10.03
2019-06-01T00:42:57.820Z,10.40
2019-06-01T00:45:31.873Z,9.70
2019-06-01T00:48:04.751Z,9.30
2019-06-01T00:50:40.033Z,9.50
2019-06-01T00:53:24.289Z,8.70
2019-06-01T00:55:59.027Z,8.67
2019-06-01T00:58:31.812Z,9.50
2019-06-01T01:01:05.631Z,9.37
2019-06-01T01:03:38.321Z,8.53
2019-06-01T01:06:11.032Z,9.93
2019-06-01T01:08:44.779Z,9.70
2019-06-01T01:11:17.778Z,10.07
2019-06-01T01:13:51.322Z,10.37
2019-06-01T01:16:23.982Z,10.60
2019-06-01T01:18:57.443Z,10.20
2019-06-01T01:21:31.723Z,12.23
2019-06-01T01:24:05.542Z,13.27
2019-06-01T01:26:39.680Z,12.70
2019-06-01T01:29:12.339Z,12.40
2019-06-01T01:31:47.015Z,10.83
2019-06-01T01:34:19.763Z,11.80
2019-06-01T01:36:54.318Z,10.30
2019-06-01T01:39:26.955Z,12.03
2019-06-01T01:41:59.941Z,12.50
2019-06-01T01:44:33.604Z,12.30
2019-06-01T01:47:07.592Z,12.10
2019-06-01T01:49:40.982Z,14.90
2019-06-01T01:52:13.471Z,11.57
2019-06-01T01:54:46.557Z,11.73
2019-06-01T01:57:19.316Z,11.90
2019-06-01T01:59:51.924Z,11.60
2019-06-01T02:02:24.564Z,10.50
2019-06-01T02:04:57.843Z,10.90
2019-06-01T02:07:30.875Z,14.57
2019-06-01T02:10:04.006Z,14.00
2019-06-01T02:12:38.722Z,15.27
2019-06-01T02:15:14.241Z,15.70
2019-06-01T02:17:47.427Z,13.10
2019-06-01T02:20:20.055Z,14.05
2019-06-01T02:22:53.012Z,13.27
2019-06-01T02:25:25.888Z,13.20
2019-06-01T02:27:59.228Z,12.63
2019-06-01T02:30:31.922Z,12.57
2019-06-01T02:33:04.902Z,12.80
2019-06-01T02:35:37.598Z,16.12
2019-06-01T02:38:10.217Z,13.67
2019-06-01T02:40:42.863Z,16.92
2019-06-01T02:43:16.369Z,18.92
2019-06-01T02:45:50.082Z,14.07
2019-06-01T02:48:22.643Z,14.80
2019-06-01T02:50:59.815Z,14.33
2019-06-01T02:53:33.845Z,14.73
2019-06-01T02:56:09.955Z,13.97
2019-06-01T02:58:42.831Z,12.23
2019-06-01T03:01:34.747Z,11.70
2019-06-01T03:04:10.067Z,11.80
2019-06-01T03:06:44.275Z,12.13
2019-06-01T03:09:20.267Z,13.20
2019-06-01T03:12:00.401Z,14.90
2019-06-01T03:14:39.118Z,15.60
2019-06-01T03:17:23.294Z,13.33
2019-06-01T03:20:02.650Z,13.27
2019-06-01T03:22:41.322Z,12.20
2019-06-01T03:25:14.458Z,11.80
2019-06-01T03:27:56.301Z,11.70
2019-06-01T03:30:45.528Z,12.13
2019-06-01T03:33:18.748Z,16.48
2019-06-01T03:35:51.533Z,15.30
2019-06-01T03:38:25.084Z,15.50
2019-06-01T03:40:57.604Z,14.77
2019-06-01T03:43:30.835Z,14.70
2019-06-01T03:46:05.130Z,16.80
2019-06-01T03:48:37.766Z,15.17
2019-06-01T03:51:14.418Z,14.90
2019-06-01T03:53:48.216Z,15.03
2019-06-01T03:56:20.925Z,15.43
2019-06-01T03:58:54.682Z,20.33
2019-06-01T04:01:27.276Z,16.27
2019-06-01T04:04:02.831Z,16.60
2019-06-01T04:06:35.703Z,17.43
2019-06-01T04:09:09.831Z,17.43
2019-06-01T04:11:44.802Z,15.90
2019-06-01T04:14:17.352Z,16.17
2019-06-01T04:16:51.583Z,16.50
2019-06-01T04:19:24.248Z,16.33
2019-06-01T04:21:56.903Z,18.20
2019-06-01T04:24:41.019Z,16.73
2019-06-01T04:27:23.946Z,15.30
2019-06-01T04:29:56.962Z,16.80
2019-06-01T04:32:29.656Z,15.80
2019-06-01T04:35:03.423Z,16.77
2019-06-01T04:37:36.078Z,16.83
2019-06-01T04:40:13.937Z,17.37
2019-06-01T04:42:49.471Z,16.03
2019-06-01T04:45:22.063Z,16.27
2019-06-01T04:47:54.452Z,15.63
2019-06-01T04:50:27.528Z,17.40
2019-06-01T04:53:00.269Z,16.53
2019-06-01T04:55:32.914Z,16.63
2019-06-01T04:58:06.687Z,15.50
2019-06-01T05:00:39.526Z,14.63
2019-06-01T05:03:13.500Z,14.77
2019-06-01T05:05:46.169Z,15.98
2019-06-01T05:08:18.776Z,13.87
2019-06-01T05:10:52.156Z,14.57
2019-06-01T05:13:25.115Z,14.83
2019-06-01T05:15:58.333Z,15.27
2019-06-01T05:18:31.645Z,13.30
2019-06-01T05:21:06.328Z,15.93
2019-06-01T05:23:43.133Z,16.73
2019-06-01T05:26:17.170Z,16.03
2019-06-01T05:28:55.498Z,14.47
2019-06-01T05:31:28.124Z,13.30
2019-06-01T05:34:02.819Z,13.27
2019-06-01T05:36:36.326Z,12.97
2019-06-01T05:39:12.326Z,11.03
2019-06-01T05:41:44.951Z,14.17
2019-06-01T05:44:19.218Z,14.30
2019-06-01T05:46:53.017Z,11.60
2019-06-01T05:49:25.686Z,10.87
2019-06-01T05:51:59.251Z,11.10
2019-06-01T05:54:33.065Z,10.37
2019-06-01T05:57:07.256Z,9.80
2019-06-01T05:59:40.483Z,9.83
2019-06-01T06:02:13.839Z,10.07
2019-06-01T06:04:46.486Z,9.70
2019-06-01T06:07:20.902Z,10.03
2019-06-01T06:09:53.474Z,9.87
2019-06-01T06:12:26.599Z,9.77
2019-06-01T06:15:00.187Z,9.53
2019-06-01T06:17:35.907Z,9.97
2019-06-01T06:20:08.914Z,8.30
2019-06-01T06:22:41.445Z,8.80
2019-06-01T06:25:14.470Z,8.93
2019-06-01T06:27:47.079Z,9.77
2019-06-01T06:30:21.097Z,8.27
2019-06-01T06:32:53.935Z,9.87
2019-06-01T06:35:26.493Z,7.77
2019-06-01T06:37:59.995Z,8.27
2019-06-01T06:40:33.590Z,8.82
2019-06-01T06:43:18.699Z,8.63
2019-06-01T06:46:03.922Z,7.50
2019-06-01T06:48:36.576Z,8.50
2019-06-01T06:51:10.853Z,8.27
2019-06-01T06:53:46.793Z,7.70
2019-06-01T06:56:19.938Z,8.40
2019-06-01T06:58:52.671Z,8.63
2019-06-01T07:01:26.960Z,8.50
2019-06-01T07:04:12.180Z,7.70
2019-06-01T07:06:49.255Z,7.93
2019-06-01T07:09:24.074Z,7.57
2019-06-01T07:11:57.073Z,7.33
2019-06-01T07:14:29.668Z,7.30
2019-06-01T07:17:02.260Z,7.75
2019-06-01T07:19:34.815Z,7.30
2019-06-01T07:22:07.362Z,7.07
2019-06-01T07:24:40.922Z,6.87
2019-06-01T07:27:13.596Z,7.57
2019-06-01T07:29:46.161Z,6.40
2019-06-01T07:32:20.568Z,6.10
2019-06-01T07:34:53.315Z,6.23
2019-06-01T07:37:28.336Z,5.80
2019-06-01T07:40:01.104Z,6.10
2019-06-01T07:42:35.189Z,6.07
2019-06-01T07:45:08.750Z,6.33
2019-06-01T07:47:42.620Z,6.63
2019-06-01T07:50:15.665Z,5.27
2019-06-01T07:52:49.549Z,3.65
2019-06-01T07:55:23.389Z,3.37
2019-06-01T07:57:56.947Z,3.77
2019-06-01T08:00:29.559Z,4.37
2019-06-01T08:03:04.189Z,4.60
2019-06-01T08:05:37.838Z,3.83
2019-06-01T08:08:10.847Z,3.27
2019-06-01T08:10:44.225Z,3.27
2019-06-01T08:13:17.193Z,3.67
2019-06-01T08:15:54.141Z,2.83
2019-06-01T08:18:28.089Z,2.50
2019-06-01T08:21:02.045Z,2.87
2019-06-01T08:23:44.796Z,2.53
2019-06-01T08:26:20.047Z,2.70
2019-06-01T08:28:52.979Z,2.57
2019-06-01T08:31:28.588Z,3.10
2019-06-01T08:34:01.580Z,3.37
2019-06-01T08:36:40.406Z,3.87
2019-06-01T08:39:13.085Z,3.70
2019-06-01T08:41:45.658Z,3.73
2019-06-01T08:44:20.329Z,4.00
2019-06-01T08:46:56.369Z,5.03
2019-06-01T08:49:30.667Z,4.40
2019-06-01T08:52:05.730Z,4.70
2019-06-01T08:54:39.738Z,4.07
2019-06-01T08:57:12.370Z,3.77
2019-06-01T08:59:46.751Z,3.73
2019-06-01T09:02:21.082Z,3.43
2019-06-01T09:04:54.662Z,3.85
2019-06-01T09:07:29.510Z,4.03
2019-06-01T09:10:02.207Z,3.67
2019-06-01T09:12:38.771Z,3.50
2019-06-01T09:15:15.200Z,3.60
2019-06-01T09:17:48.664Z,3.40
2019-06-01T09:20:22.470Z,3.70
2019-06-01T09:22:59.897Z,3.87
2019-06-01T09:25:35.632Z,3.73
2019-06-01T09:28:15.465Z,3.80
2019-06-01T09:30:51.211Z,3.67
2019-06-01T09:33:23.963Z,5.93
2019-06-01T09:35:59.026Z,3.40
2019-06-01T09:38:36.053Z,4.17
2019-06-01T09:41:17.763Z,3.83
2019-06-01T09:44:05.369Z,3.73
2019-06-01T09:46:45.203Z,3.77
2019-06-01T09:49:17.984Z,4.33
2019-06-01T09:51:51.051Z,4.43
2019-06-01T09:54:24.476Z,3.33
2019-06-01T09:57:01.585Z,3.97
2019-06-01T09:59:36.052Z,3.40
2019-06-01T10:02:11.779Z,4.30
2019-06-01T10:04:46.540Z,3.53
2019-06-01T10:07:26.800Z,3.30
2019-06-01T10:09:59.514Z,3.43
2019-06-01T10:12:32.069Z,3.40
2019-06-01T10:15:07.909Z,3.70
2019-06-01T10:17:41.446Z,3.40
2019-06-01T10:20:14.402Z,3.00
2019-06-01T10:22:48.783Z,3.77
2019-06-01T10:25:32.515Z,3.10
2019-06-01T10:28:22.133Z,3.90
2019-06-01T10:31:03.591Z,3.53
2019-06-01T10:33:51.280Z,3.30
2019-06-01T10:36:27.877Z,3.57
2019-06-01T10:39:04.207Z,3.17
2019-06-01T10:41:37.550Z,3.10
2019-06-01T10:44:11.713Z,3.27
2019-06-01T10:46:46.757Z,2.80
2019-06-01T10:49:20.210Z,3.20
2019-06-01T10:51:53.432Z,3.23
2019-06-01T10:54:26.762Z,3.40
2019-06-01T10:57:00.538Z,3.23
2019-06-01T10:59:34.203Z,3.30
2019-06-01T11:02:08.677Z,3.27
2019-06-01T11:04:41.284Z,3.90
2019-06-01T11:07:15.576Z,3.50
2019-06-01T11:09:50.313Z,3.33
2019-06-01T11:12:23.897Z,3.43
2019-06-01T11:14:58.418Z,2.87
2019-06-01T11:17:31.215Z,2.37
2019-06-01T11:20:09.567Z,2.80
2019-06-01T11:22:46.416Z,2.40
2019-06-01T11:25:21.493Z,2.50
2019-06-01T11:27:57.095Z,2.10
2019-06-01T11:30:31.884Z,2.10
2019-06-01T11:33:06.746Z,2.13
2019-06-01T11:35:39.403Z,2.50
2019-06-01T11:38:12.945Z,2.30
2019-06-01T11:40:53.478Z,1.70
2019-06-01T11:43:26.125Z,1.90
2019-06-01T11:46:02.273Z,1.97
2019-06-01T11:48:37.148Z,1.83
2019-06-01T11:51:21.412Z,2.43
2019-06-01T11:53:54.101Z,2.20
2019-06-01T11:56:27.819Z,3.23
2019-06-01T11:59:03.971Z,2.10
2019-06-01T12:01:44.141Z,2.20
2019-06-01T12:04:18.609Z,2.10
2019-06-01T12:07:13.716Z,2.40
2019-06-01T12:09:50.735Z,2.40
2019-06-01T12:12:23.803Z,2.20
2019-06-01T12:14:57.518Z,2.20
2019-06-01T12:17:32.269Z,2.10
2019-06-01T12:20:11.105Z,2.40
2019-06-01T12:22:45.141Z,2.10
2019-06-01T12:25:19.363Z,2.80
2019-06-01T12:27:55.856Z,2.10
2019-06-01T12:30:29.873Z,2.47
2019-06-01T12:33:02.963Z,2.60
2019-06-01T12:35:37.904Z,2.00
2019-06-01T12:38:12.240Z,2.60
2019-06-01T12:40:47.415Z,2.10
2019-06-01T12:43:23.287Z,2.40
2019-06-01T12:46:07.114Z,2.17
2019-06-01T12:48:43.889Z,2.00
2019-06-01T12:51:20.590Z,2.30
2019-06-01T12:53:54.349Z,2.23
2019-06-01T12:56:36.700Z,2.20
2019-06-01T12:59:14.420Z,2.03
2019-06-01T13:01:51.379Z,2.40
2019-06-01T13:04:24.688Z,2.10
2019-06-01T13:06:59.083Z,1.87
2019-06-01T13:09:32.737Z,2.10
2019-06-01T13:12:05.561Z,2.30
2019-06-01T13:14:39.379Z,2.37
2019-06-01T13:17:20.750Z,2.20
2019-06-01T13:19:56.912Z,1.70
2019-06-01T13:22:29.788Z,1.80
2019-06-01T13:25:03.700Z,2.20
2019-06-01T13:27:40.794Z,2.00
2019-06-01T13:30:19.075Z,2.40
2019-06-01T13:32:52.773Z,2.10
2019-06-01T13:35:26.314Z,2.10
2019-06-01T13:38:11.556Z,2.20
2019-06-01T13:40:48.964Z,2.20
2019-06-01T13:43:22.627Z,2.10
2019-06-01T13:45:55.938Z,2.00
2019-06-01T13:48:28.537Z,2.00
2019-06-01T13:51:02.337Z,1.93
2019-06-01T13:53:34.855Z,2.30
2019-06-01T13:56:11.533Z,2.07
2019-06-01T13:58:46.292Z,1.90
2019-06-01T14:01:21.571Z,1.90
2019-06-01T14:04:02.648Z,1.93
2019-06-01T14:06:40.625Z,2.00
2019-06-01T14:09:13.732Z,1.77
2019-06-01T14:11:47.409Z,2.03
2019-06-01T14:14:20.041Z,2.20
2019-06-01T14:16:55.661Z,1.97
2019-06-01T14:19:28.509Z,2.47
2019-06-01T14:22:01.165Z,1.87
2019-06-01T14:24:34.570Z,1.97
2019-06-01T14:27:08.554Z,1.73
2019-06-01T14:29:46.435Z,1.70
2019-06-01T14:32:19.178Z,1.80
2019-06-01T14:34:53.378Z,2.07
2019-06-01T14:37:27.211Z,2.30
2019-06-01T14:39:59.771Z,1.90
2019-06-01T14:42:33.973Z,2.10
2019-06-01T14:45:14.158Z,2.17
2019-06-01T14:47:51.464Z,2.00
2019-06-01T14:50:25.912Z,1.53
2019-06-01T14:53:01.629Z,1.93
2019-06-01T14:55:34.999Z,2.00
2019-06-01T14:58:09.436Z,1.83
2019-06-01T15:00:42.075Z,1.60
2019-06-01T15:03:18.729Z,1.70
2019-06-01T15:05:54.955Z,1.90
2019-06-01T15:08:29.762Z,1.90
2019-06-01T15:11:03.541Z,2.00
2019-06-01T15:13:36.324Z,1.90
2019-06-01T15:16:10.070Z,1.37
2019-06-01T15:18:43.966Z,1.77
2019-06-01T15:21:19.468Z,2.00
2019-06-01T15:23:53.862Z,1.70
2019-06-01T15:26:26.579Z,2.00
2019-06-01T15:29:00.151Z,1.90
2019-06-01T15:31:33.397Z,1.87
2019-06-01T15:34:07.431Z,1.57
2019-06-01T15:36:53.550Z,1.40
2019-06-01T15:39:41.245Z,1.75
2019-06-01T15:42:18.738Z,1.67
2019-06-01T15:44:51.411Z,1.70
2019-06-01T15:47:27.226Z,1.70
2019-06-01T15:50:02.893Z,1.47
2019-06-01T15:52:37.305Z,2.47
2019-06-01T15:55:10.456Z,1.80
2019-06-01T15:57:43.215Z,1.50
2019-06-01T16:00:20.030Z,1.60
2019-06-01T16:02:53.340Z,1.80
2019-06-01T16:05:27.724Z,1.60
2019-06-01T16:08:01.606Z,1.50
2019-06-01T16:10:37.942Z,1.48
2019-06-01T16:13:11.230Z,1.60
2019-06-01T16:15:44.291Z,1.33
2019-06-01T16:18:17.636Z,1.55
2019-06-01T16:20:51.416Z,1.70
2019-06-01T16:23:28.732Z,1.50
2019-06-01T16:26:15.480Z,1.50
2019-06-01T16:28:52.604Z,1.53
2019-06-01T16:31:26.355Z,1.63
2019-06-01T16:33:59.052Z,1.50
2019-06-01T16:36:34.226Z,1.60
2019-06-01T16:39:09.526Z,1.87
2019-06-01T16:41:42.288Z,1.50
2019-06-01T16:44:20.354Z,1.60
2019-06-01T16:46:55.557Z,2.07
2019-06-01T16:49:28.512Z,1.50
2019-06-01T16:52:03.328Z,1.77
2019-06-01T16:54:36.268Z,1.87
2019-06-01T16:57:09.312Z,1.60
2019-06-01T16:59:42.865Z,1.60
2019-06-01T17:02:16.159Z,1.60
2019-06-01T17:04:49.807Z,1.40
2019-06-01T17:07:24.852Z,1.60
2019-06-01T17:10:08.147Z,1.60
2019-06-01T17:12:56.761Z,1.70
2019-06-01T17:15:31.680Z,1.67
2019-06-01T17:18:10.333Z,2.30
2019-06-01T17:20:49.580Z,1.80
2019-06-01T17:23:27.509Z,2.03
2019-06-01T17:26:04.132Z,1.60
2019-06-01T17:28:38.855Z,1.70
2019-06-01T17:31:14.894Z,1.80
2019-06-01T17:33:49.555Z,1.57
2019-06-01T17:36:22.149Z,1.57
2019-06-01T17:38:54.737Z,1.70
2019-06-01T17:41:27.444Z,1.27
2019-06-01T17:44:02.612Z,1.53
2019-06-01T17:46:53.068Z,1.40
2019-06-01T17:49:27.713Z,1.63
2019-06-01T17:52:03.667Z,1.97
2019-06-01T17:54:36.430Z,1.80
2019-06-01T17:57:12.230Z,1.80
2019-06-01T17:59:45.061Z,1.60
2019-06-01T18:02:17.967Z,1.90
2019-06-01T18:04:50.617Z,1.90
2019-06-01T18:07:33.890Z,1.80
2019-06-01T18:10:12.564Z,1.63
2019-06-01T18:12:46.340Z,1.50
2019-06-01T18:15:26.498Z,1.80
2019-06-01T18:18:00.271Z,1.70
2019-06-01T18:20:35.086Z,1.60
2019-06-01T18:23:10.130Z,1.47
2019-06-01T18:25:45.735Z,1.63
2019-06-01T18:28:20.115Z,1.92
2019-06-01T18:30:55.121Z,1.83
2019-06-01T18:33:30.156Z,1.70
2019-06-01T18:36:07.559Z,1.53
2019-06-01T18:38:41.477Z,1.80
2019-06-01T18:41:18.326Z,1.98
2019-06-01T18:43:53.050Z,1.90
2019-06-01T18:46:34.780Z,1.60
2019-06-01T18:49:09.908Z,1.90
2019-06-01T18:51:44.945Z,1.87
2019-06-01T18:54:19.111Z,1.83
2019-06-01T18:57:06.835Z,1.80
2019-06-01T18:59:44.439Z,2.07
2019-06-01T19:02:18.553Z,2.50
2019-06-01T19:04:51.207Z,2.33
2019-06-01T19:07:28.895Z,2.33
2019-06-01T19:10:02.436Z,2.63
2019-06-01T19:12:39.127Z,2.07
2019-06-01T19:15:27.840Z,2.30
2019-06-01T19:18:02.812Z,2.27
2019-06-01T19:20:36.105Z,2.90
2019-06-01T19:23:08.783Z,3.10
2019-06-01T19:25:41.499Z,3.67
2019-06-01T19:28:21.658Z,3.83
2019-06-01T19:30:57.099Z,3.40
2019-06-01T19:33:38.378Z,3.03
2019-06-01T19:36:13.276Z,3.10
2019-06-01T19:38:48.190Z,2.60
2019-06-01T19:41:22.344Z,2.77
2019-06-01T19:44:01.460Z,2.75
2019-06-01T19:46:37.677Z,2.33
2019-06-01T19:49:16.958Z,2.80
2019-06-01T19:51:50.684Z,2.57
2019-06-01T19:54:23.298Z,2.70
2019-06-01T19:56:56.852Z,2.93
2019-06-01T19:59:30.907Z,3.10
2019-06-01T20:02:04.394Z,2.93
2019-06-01T20:04:38.127Z,2.70
2019-06-01T20:07:13.095Z,2.80
2019-06-01T20:09:48.772Z,2.97
2019-06-01T20:12:30.715Z,2.87
2019-06-01T20:15:37.846Z,2.93
2019-06-01T20:18:25.147Z,3.37
2019-06-01T20:20:58.862Z,2.80
2019-06-01T20:23:35.764Z,3.67
2019-06-01T20:26:13.538Z,3.20
2019-06-01T20:28:46.936Z,3.30
2019-06-01T20:31:21.962Z,2.87
2019-06-01T20:33:58.569Z,3.13
2019-06-01T20:36:39.095Z,3.30
2019-06-01T20:39:14.202Z,2.93
2019-06-01T20:41:53.337Z,2.97
2019-06-01T20:44:27.638Z,2.97
2019-06-01T20:47:10.742Z,3.58
2019-06-01T20:49:57.057Z,3.60
2019-06-01T20:52:32.332Z,3.83
2019-06-01T20:55:07.419Z,3.50
2019-06-01T20:57:41.130Z,3.67
2019-06-01T21:00:18.109Z,3.67
2019-06-01T21:02:52.228Z,3.80
2019-06-01T21:05:24.993Z,4.73
2019-06-01T21:08:01.134Z,4.40
2019-06-01T21:10:38.119Z,3.60
2019-06-01T21:13:14.149Z,3.83
2019-06-01T21:15:47.787Z,4.30
2019-06-01T21:18:22.850Z,4.27
2019-06-01T21:20:57.546Z,4.83
2019-06-01T21:23:30.283Z,4.23
2019-06-01T21:26:05.057Z,3.73
2019-06-01T21:28:39.463Z,3.97
2019-06-01T21:31:14.808Z,4.53
2019-06-01T21:33:48.735Z,4.30
2019-06-01T21:36:25.841Z,4.23
2019-06-01T21:39:01.606Z,3.73
2019-06-01T21:41:35.128Z,3.47
2019-06-01T21:44:17.447Z,3.73
2019-06-01T21:46:51.224Z,4.25
2019-06-01T21:49:31.429Z,5.03
2019-06-01T21:52:04.222Z,4.33
2019-06-01T21:54:38.846Z,4.63
2019-06-01T21:57:16.005Z,4.60
2019-06-01T21:59:50.885Z,4.67
2019-06-01T22:02:24.951Z,4.80
2019-06-01T22:04:59.210Z,4.83
2019-06-01T22:07:31.760Z,4.67
2019-06-01T22:10:07.377Z,4.83
2019-06-01T22:12:42.987Z,4.90
2019-06-01T22:15:19.452Z,4.93
2019-06-01T22:17:53.423Z,4.97
2019-06-01T22:20:28.537Z,5.10
2019-06-01T22:23:01.784Z,5.40
2019-06-01T22:25:35.985Z,5.30
2019-06-01T22:28:08.841Z,4.97
2019-06-01T22:30:43.009Z,5.20
2019-06-01T22:33:16.562Z,5.47
2019-06-01T22:35:49.161Z,5.37
2019-06-01T22:38:25.853Z,5.32
2019-06-01T22:41:00.709Z,5.20
2019-06-01T22:43:45.648Z,5.10
2019-06-01T22:46:20.797Z,5.40
2019-06-01T22:48:53.723Z,5.00
2019-06-01T22:51:27.067Z,5.17
2019-06-01T22:54:00.605Z,5.00
2019-06-01T22:56:36.847Z,4.87
2019-06-01T22:59:10.514Z,5.55
2019-06-01T23:01:43.782Z,4.97
2019-06-01T23:04:18.427Z,4.90
2019-06-01T23:06:55.825Z,5.90
2019-06-01T23:09:31.671Z,4.70
2019-06-01T23:12:07.351Z,4.90
2019-06-01T23:14:39.937Z,5.00
2019-06-01T23:17:13.686Z,5.27
2019-06-01T23:19:47.024Z,5.10
2019-06-01T23:22:19.680Z,4.90
2019-06-01T23:24:56.532Z,4.60
2019-06-01T23:27:31.072Z,5.27
2019-06-01T23:30:06.447Z,5.37
2019-06-01T23:32:41.890Z,4.90
2019-06-01T23:35:20.010Z,4.93
2019-06-01T23:37:52.594Z,5.87
2019-06-01T23:40:26.476Z,4.97
2019-06-01T23:42:59.201Z,5.30
2019-06-01T23:45:32.918Z,5.70
2019-06-01T23:48:06.581Z,5.70
2019-06-01T23:50:40.023Z,5.47
2019-06-01T23:53:15.747Z,5.60
2019-06-01T23:55:48.356Z,5.80
2019-06-01T23:58:20.913Z,6.10
